Holiday, OR

9:00 PM PDT on April 21, 2015 (GMT -0700)
SouthSide | | Change Station
CLOSE
Current Station
Personal Weather Station
Location: Albany, OR
Elevation: 220 ft
Nearby Weather Stations

Elev 220 ft 44.60 °N, 123.13 °W | Updated 11 minutes ago

Overcast
Overcast
51.1 °F
Feels Like 51.1 °F
N
2.2
Wind Variable Wind from WSW

Today
High -- | Low -- °F
--% Chance of Precip.
Yesterday
High -- | Low -- °F
Precip. -- in
6:18 AM 8:04 PM
Waxing Crescent, 15% visible
Pressure 30.14 in
Visibility 10.0 miles
Clouds Mostly Cloudy 3400 ft
Overcast 4200 ft
Dew Point 41 °F
Humidity 68%
Rainfall 0.00 in
Snow Depth Not available.
UV 0 out of 12
Pollen 10.10 out of 12
Air Quality Not available.
Flu Activity Regional
METAR KCVO 220355Z 31011KT 10SM BKN034 OVC042 10/04 A3014 RMK AO1

More Conditions Fewer Conditions

Pressure 30.14 in
Visibility 10.0 miles
Clouds Mostly Cloudy 3400 ft
Overcast 4200 ft
Dew Point 41 °F
Humidity 68%
Rainfall 0.00 in
Snow Depth Not available.
UV 0 out of 12
Pollen 10.10 out of 12
Air Quality Not available.
Flu Activity Regional
METAR KCVO 220355Z 31011KT 10SM BKN034 OVC042 10/04 A3014 RMK AO1

More Conditions Fewer Conditions

10-Day Weather Forecast

Almanac

Astronomy

Apr. 21, 2015 Rise Set
Actual Time
Civil Twilight
Nautical Twilight
Astronomical Twilight
Moon
Length of Visible Light
Length of Day
Tomorrow will be .
, % of the Moon is Illuminated

Today's Extremes

State Highs State Lows

Community

WunderPhotos

Upload Photos

1,815,666 photos uploaded!

WunderBlogs® & News

Nearby

Air Quality

  Air Quality AQ Index Pollutant
Not available.

Snow Depth

Station Depth Elevation

Earthquake Activity

City Distance Mag. Time & Date
Minimum magnitude displayed is 2.5.

Coastal Water Temperatures

Place Temperature

Stations

Nearby Weather Stations

Station Location Temp. Windchill Dew Point Humidity Wind Precip. Elev Updated Type